createdAt,value
2018-08-30T00:00:19.293Z,20.00
2018-08-30T00:02:47.811Z,20.00
2018-08-30T00:05:16.405Z,19.90
2018-08-30T00:07:44.913Z,19.90
2018-08-30T00:10:13.492Z,19.90
2018-08-30T00:12:42.034Z,19.80
2018-08-30T00:15:10.590Z,19.80
2018-08-30T00:17:39.109Z,19.80
2018-08-30T00:20:07.707Z,19.80
2018-08-30T00:22:36.221Z,19.80
2018-08-30T00:25:04.977Z,19.80
2018-08-30T00:27:33.519Z,19.70
2018-08-30T00:30:02.122Z,19.60
2018-08-30T00:32:30.651Z,19.60
2018-08-30T00:34:59.229Z,19.60
2018-08-30T00:37:27.776Z,19.70
2018-08-30T00:39:56.327Z,19.60
2018-08-30T00:42:24.853Z,19.60
2018-08-30T00:44:53.421Z,19.50
2018-08-30T00:47:22.360Z,19.50
2018-08-30T00:49:51.614Z,19.50
2018-08-30T00:52:20.470Z,19.50
2018-08-30T00:54:49.147Z,19.40
2018-08-30T00:57:18.022Z,19.40
2018-08-30T00:59:46.654Z,19.40
2018-08-30T01:02:15.155Z,19.40
2018-08-30T01:04:43.642Z,19.40
2018-08-30T01:07:12.102Z,19.40
2018-08-30T01:09:40.687Z,19.30
2018-08-30T01:12:09.218Z,19.30
2018-08-30T01:14:37.670Z,19.30
2018-08-30T01:17:06.260Z,19.30
2018-08-30T01:19:34.833Z,19.20
2018-08-30T01:22:03.340Z,19.10
2018-08-30T01:24:31.846Z,19.10
2018-08-30T01:27:00.335Z,19.10
2018-08-30T01:29:28.809Z,19.10
2018-08-30T01:31:57.339Z,19.00
2018-08-30T01:34:25.787Z,19.10
2018-08-30T01:36:54.220Z,19.00
2018-08-30T01:39:22.603Z,19.10
2018-08-30T01:41:51.011Z,19.00
2018-08-30T01:44:19.452Z,19.10
2018-08-30T01:46:47.846Z,19.10
2018-08-30T01:49:16.316Z,19.00
2018-08-30T01:51:44.711Z,18.90
2018-08-30T01:54:13.103Z,18.90
2018-08-30T01:56:41.520Z,18.80
2018-08-30T01:59:10.000Z,18.70
2018-08-30T02:01:38.478Z,18.60
2018-08-30T02:04:06.946Z,18.60
2018-08-30T02:06:35.409Z,18.50
2018-08-30T02:09:04.440Z,18.60
2018-08-30T02:11:32.912Z,18.50
2018-08-30T02:14:01.341Z,18.50
2018-08-30T02:16:30.476Z,18.40
2018-08-30T02:18:58.909Z,18.30
2018-08-30T02:21:27.346Z,18.30
2018-08-30T02:23:55.775Z,18.20
2018-08-30T02:26:24.247Z,18.20
2018-08-30T02:28:52.660Z,18.10
2018-08-30T02:31:21.091Z,18.10
2018-08-30T02:33:49.532Z,18.00
2018-08-30T02:36:17.952Z,18.00
2018-08-30T02:38:46.479Z,18.00
2018-08-30T02:41:14.900Z,18.00
2018-08-30T02:43:43.359Z,17.90
2018-08-30T02:46:11.839Z,17.90
2018-08-30T02:48:40.348Z,17.90
2018-08-30T02:51:08.772Z,17.90
2018-08-30T02:53:37.218Z,17.80
2018-08-30T02:56:05.706Z,17.80
2018-08-30T02:58:34.237Z,17.80
2018-08-30T03:01:02.622Z,17.90
2018-08-30T03:03:31.057Z,17.80
2018-08-30T03:05:59.455Z,17.80
2018-08-30T03:08:27.891Z,17.70
2018-08-30T03:10:56.295Z,17.70
2018-08-30T03:13:24.752Z,17.70
2018-08-30T03:15:53.203Z,17.70
2018-08-30T03:18:21.596Z,17.80
2018-08-30T03:20:49.990Z,17.80
2018-08-30T03:23:18.437Z,17.70
2018-08-30T03:25:46.830Z,17.60
2018-08-30T03:28:15.247Z,17.50
2018-08-30T03:30:43.686Z,17.50
2018-08-30T03:33:12.120Z,17.40
2018-08-30T03:35:40.547Z,17.40
2018-08-30T03:38:08.976Z,17.40
2018-08-30T03:40:37.375Z,17.50
2018-08-30T03:43:05.838Z,17.40
2018-08-30T03:45:34.223Z,17.40
2018-08-30T03:48:02.628Z,17.50
2018-08-30T03:50:31.008Z,17.40
2018-08-30T03:52:59.411Z,17.40
2018-08-30T03:55:27.793Z,17.40
2018-08-30T03:57:56.224Z,17.40
2018-08-30T04:00:24.652Z,17.40
2018-08-30T04:02:53.189Z,17.50
2018-08-30T04:05:21.578Z,17.60
2018-08-30T04:07:49.970Z,17.40
2018-08-30T04:10:18.340Z,17.40
2018-08-30T04:12:46.712Z,17.50
2018-08-30T04:15:15.178Z,17.40
2018-08-30T04:17:43.547Z,17.40
2018-08-30T04:20:11.955Z,17.40
2018-08-30T04:22:40.330Z,17.30
2018-08-30T04:25:08.788Z,17.40
2018-08-30T04:27:37.166Z,17.40
2018-08-30T04:30:05.983Z,17.30
2018-08-30T04:32:34.424Z,17.30
2018-08-30T04:35:02.824Z,17.30
2018-08-30T04:37:31.215Z,17.40
2018-08-30T04:39:59.653Z,17.40
2018-08-30T04:42:28.251Z,17.30
2018-08-30T04:44:56.476Z,17.30
2018-08-30T04:47:24.892Z,17.40
2018-08-30T04:49:53.295Z,17.30
2018-08-30T04:52:21.692Z,17.30
2018-08-30T04:54:50.091Z,17.30
2018-08-30T04:57:18.505Z,17.30
2018-08-30T04:59:46.924Z,17.40
2018-08-30T05:02:15.304Z,17.30
2018-08-30T05:04:43.724Z,17.30
2018-08-30T05:07:12.147Z,17.30
2018-08-30T05:09:40.621Z,17.30
2018-08-30T05:12:09.274Z,17.40
2018-08-30T05:14:37.686Z,17.40
2018-08-30T05:17:06.156Z,17.40
2018-08-30T05:19:34.684Z,17.40
2018-08-30T05:22:03.080Z,17.40
2018-08-30T05:24:31.483Z,17.30
2018-08-30T05:26:59.892Z,17.30
2018-08-30T05:29:28.280Z,17.30
2018-08-30T05:31:56.813Z,17.20
2018-08-30T05:34:25.195Z,17.20
2018-08-30T05:36:53.673Z,17.20
2018-08-30T05:39:22.029Z,17.20
2018-08-30T05:41:50.435Z,17.20
2018-08-30T05:44:18.816Z,17.20
2018-08-30T05:46:47.224Z,17.20
2018-08-30T05:49:15.695Z,17.20
2018-08-30T05:51:44.168Z,17.20
2018-08-30T05:54:12.577Z,17.10
2018-08-30T05:56:41.073Z,17.00
2018-08-30T05:59:09.503Z,17.00
2018-08-30T06:01:37.951Z,17.10
2018-08-30T06:04:06.559Z,17.20
2018-08-30T06:06:35.043Z,17.20
2018-08-30T06:09:04.205Z,17.30
2018-08-30T06:11:32.716Z,17.30
2018-08-30T06:14:01.212Z,17.20
2018-08-30T06:16:29.647Z,17.20
2018-08-30T06:18:58.086Z,17.10
2018-08-30T06:21:26.532Z,16.80
2018-08-30T06:23:55.035Z,16.80
2018-08-30T06:26:23.493Z,16.80
2018-08-30T06:28:52.028Z,16.70
2018-08-30T06:31:20.481Z,16.70
2018-08-30T06:33:48.921Z,16.70
2018-08-30T06:36:17.498Z,16.60
2018-08-30T06:38:46.039Z,16.70
2018-08-30T06:41:14.418Z,16.70
2018-08-30T06:43:42.863Z,16.70
2018-08-30T06:46:11.308Z,16.70
2018-08-30T06:48:39.812Z,16.70
2018-08-30T06:51:08.229Z,16.70
2018-08-30T06:53:36.685Z,16.70
2018-08-30T06:56:05.134Z,16.70
2018-08-30T06:58:33.708Z,16.80
2018-08-30T07:01:02.089Z,16.80
2018-08-30T07:03:30.574Z,16.80
2018-08-30T07:05:58.995Z,16.70
2018-08-30T07:08:27.463Z,16.80
2018-08-30T07:10:55.899Z,16.70
2018-08-30T07:13:24.351Z,16.80
2018-08-30T07:15:52.789Z,16.80
2018-08-30T07:18:21.332Z,16.80
2018-08-30T07:20:49.751Z,17.00
2018-08-30T07:23:18.223Z,17.00
2018-08-30T07:25:46.640Z,17.00
2018-08-30T07:28:15.191Z,17.20
2018-08-30T07:30:43.619Z,17.20
2018-08-30T07:33:12.068Z,17.40
2018-08-30T07:35:40.491Z,17.60
2018-08-30T07:38:08.898Z,17.80
2018-08-30T07:40:37.315Z,17.80
2018-08-30T07:43:05.766Z,17.70
2018-08-30T07:45:34.187Z,17.70
2018-08-30T07:48:02.632Z,17.60
2018-08-30T07:50:31.055Z,17.60
2018-08-30T07:52:59.489Z,17.70
2018-08-30T07:55:28.151Z,17.70
2018-08-30T07:57:57.020Z,17.80
2018-08-30T08:00:25.936Z,17.70
2018-08-30T08:02:54.753Z,17.70
2018-08-30T08:05:23.421Z,17.70
2018-08-30T08:07:51.823Z,17.70
2018-08-30T08:10:20.248Z,17.80
2018-08-30T08:12:48.663Z,17.80
2018-08-30T08:15:17.231Z,17.80
2018-08-30T08:17:45.859Z,17.80
2018-08-30T08:20:14.275Z,17.80
2018-08-30T08:22:42.676Z,17.80
2018-08-30T08:25:11.132Z,17.90
2018-08-30T08:27:39.526Z,17.90
2018-08-30T08:30:08.204Z,17.80
2018-08-30T08:32:36.595Z,17.80
2018-08-30T08:35:05.408Z,17.80
2018-08-30T08:37:33.830Z,17.90
2018-08-30T08:40:02.287Z,18.10
2018-08-30T08:42:30.729Z,18.30
2018-08-30T08:44:59.220Z,18.60
2018-08-30T08:47:27.712Z,18.80
2018-08-30T08:49:56.200Z,19.00
2018-08-30T08:52:24.684Z,18.90
2018-08-30T08:54:53.148Z,18.80
2018-08-30T08:57:21.621Z,18.50
2018-08-30T08:59:50.068Z,18.50
2018-08-30T09:02:18.541Z,18.50
2018-08-30T09:04:47.021Z,18.30
2018-08-30T09:07:15.525Z,18.50
2018-08-30T09:09:44.025Z,18.70
2018-08-30T09:12:12.471Z,18.80
2018-08-30T09:14:40.984Z,18.60
2018-08-30T09:17:09.492Z,18.80
2018-08-30T09:19:37.992Z,19.00
2018-08-30T09:22:06.519Z,18.90
2018-08-30T09:24:35.013Z,18.80
2018-08-30T09:27:03.583Z,18.70
2018-08-30T09:29:32.015Z,18.80
2018-08-30T09:32:00.780Z,18.70
2018-08-30T09:34:29.268Z,18.80
2018-08-30T09:36:57.813Z,19.00
2018-08-30T09:39:26.267Z,19.10
2018-08-30T09:41:54.731Z,19.40
2018-08-30T09:44:23.175Z,19.20
2018-08-30T09:46:51.748Z,19.20
2018-08-30T09:49:20.213Z,19.20
2018-08-30T09:51:48.700Z,18.80
2018-08-30T09:54:17.239Z,19.00
2018-08-30T09:56:45.736Z,19.10
2018-08-30T09:59:14.257Z,19.20
2018-08-30T10:01:50.059Z,19.30
2018-08-30T10:04:19.547Z,19.50
2018-08-30T10:06:48.050Z,19.60
2018-08-30T10:09:16.565Z,19.60
2018-08-30T10:11:45.109Z,19.60
2018-08-30T10:14:13.593Z,19.80
2018-08-30T10:16:42.728Z,19.80
2018-08-30T10:19:11.218Z,19.80
2018-08-30T10:21:40.111Z,19.80
2018-08-30T10:24:08.588Z,19.70
2018-08-30T10:26:37.084Z,19.60
2018-08-30T10:29:05.928Z,19.80
2018-08-30T10:31:34.532Z,19.90
2018-08-30T10:34:03.105Z,20.10
2018-08-30T10:36:31.560Z,20.00
2018-08-30T10:39:00.026Z,20.10
2018-08-30T10:41:28.468Z,20.20
2018-08-30T10:43:56.906Z,20.60
2018-08-30T10:46:25.395Z,20.60
2018-08-30T10:48:53.848Z,20.30
2018-08-30T10:51:22.328Z,20.40
2018-08-30T10:53:50.784Z,20.40
2018-08-30T10:56:19.382Z,20.80
2018-08-30T10:58:47.837Z,20.60
2018-08-30T11:01:16.318Z,20.50
2018-08-30T11:03:45.647Z,20.50
2018-08-30T11:06:14.193Z,20.30
2018-08-30T11:08:42.656Z,20.30
2018-08-30T11:11:11.114Z,20.50
2018-08-30T11:13:39.585Z,20.60
2018-08-30T11:16:07.997Z,20.60
2018-08-30T11:18:36.574Z,20.50
2018-08-30T11:21:05.022Z,20.40
2018-08-30T11:23:33.481Z,20.30
2018-08-30T11:26:01.956Z,20.20
2018-08-30T11:28:30.442Z,20.20
2018-08-30T11:30:58.923Z,20.30
2018-08-30T11:33:27.478Z,20.20
2018-08-30T11:35:55.964Z,20.20
2018-08-30T11:38:24.511Z,20.40
2018-08-30T11:40:52.956Z,20.70
2018-08-30T11:43:21.456Z,20.80
2018-08-30T11:45:49.903Z,20.70
2018-08-30T11:48:18.382Z,20.60
2018-08-30T11:50:46.947Z,20.60
2018-08-30T11:53:15.459Z,20.60
2018-08-30T11:55:43.954Z,20.40
2018-08-30T11:58:12.426Z,20.30
2018-08-30T12:00:40.967Z,20.50
2018-08-30T12:03:09.490Z,20.80
2018-08-30T12:05:38.037Z,20.80
2018-08-30T12:08:06.690Z,20.90
2018-08-30T12:10:36.542Z,20.90
2018-08-30T12:13:05.043Z,21.00
2018-08-30T12:15:33.510Z,21.00
2018-08-30T12:18:02.266Z,21.20
2018-08-30T12:20:30.819Z,21.50
2018-08-30T12:22:59.245Z,21.70
2018-08-30T12:25:27.719Z,21.80
2018-08-30T12:27:56.199Z,22.00
2018-08-30T12:30:24.702Z,21.70
2018-08-30T12:32:53.301Z,21.70
2018-08-30T12:35:21.855Z,21.70
2018-08-30T12:37:50.373Z,21.80
2018-08-30T12:40:18.875Z,21.80
2018-08-30T12:42:47.324Z,22.00
2018-08-30T12:45:15.727Z,21.90
2018-08-30T12:47:44.153Z,22.30
2018-08-30T12:50:12.720Z,22.70
2018-08-30T12:52:41.053Z,22.30
2018-08-30T12:55:09.656Z,22.10
2018-08-30T12:57:38.063Z,21.90
2018-08-30T13:00:07.086Z,21.70
2018-08-30T13:02:35.410Z,21.70
2018-08-30T13:05:04.186Z,21.60
2018-08-30T13:07:32.663Z,21.80
2018-08-30T13:10:01.350Z,22.10
2018-08-30T13:12:29.830Z,22.40
2018-08-30T13:14:58.450Z,22.00
2018-08-30T13:17:26.945Z,21.80
2018-08-30T13:19:55.420Z,21.60
2018-08-30T13:22:24.067Z,21.50
2018-08-30T13:24:52.519Z,21.50
2018-08-30T13:27:20.878Z,21.60
2018-08-30T13:29:49.514Z,21.80
2018-08-30T13:32:17.939Z,21.80
2018-08-30T13:34:46.530Z,22.00
2018-08-30T13:37:14.932Z,22.00
2018-08-30T13:39:43.393Z,21.80
2018-08-30T13:42:11.960Z,22.00
2018-08-30T13:44:40.734Z,22.20
2018-08-30T13:47:09.160Z,22.20
2018-08-30T13:49:37.309Z,22.40
2018-08-30T13:52:06.070Z,22.30
2018-08-30T13:54:34.477Z,22.40
2018-08-30T13:57:03.122Z,22.50
2018-08-30T13:59:31.445Z,22.60
2018-08-30T14:01:59.860Z,22.30
2018-08-30T14:04:28.377Z,22.10
2018-08-30T14:06:56.949Z,22.20
2018-08-30T14:09:25.386Z,22.30
2018-08-30T14:11:54.109Z,22.30
2018-08-30T14:14:22.424Z,22.20
2018-08-30T14:16:50.677Z,22.00
2018-08-30T14:19:19.170Z,21.90
2018-08-30T14:21:47.628Z,22.00
2018-08-30T14:24:16.012Z,21.90
2018-08-30T14:26:44.642Z,22.10
2018-08-30T14:29:12.914Z,22.20
2018-08-30T14:31:41.394Z,22.00
2018-08-30T14:34:09.872Z,22.00
2018-08-30T14:36:38.422Z,21.90
2018-08-30T14:39:08.599Z,22.00
2018-08-30T14:41:36.993Z,22.10
2018-08-30T14:44:05.511Z,21.80
2018-08-30T14:46:34.024Z,21.70
2018-08-30T14:49:02.587Z,21.90
2018-08-30T14:51:31.115Z,21.70
2018-08-30T14:53:59.723Z,21.90
2018-08-30T14:56:28.137Z,21.90
2018-08-30T14:58:56.605Z,21.90
2018-08-30T15:01:25.084Z,21.80
2018-08-30T15:03:53.552Z,21.70
2018-08-30T15:06:22.032Z,21.70
2018-08-30T15:08:50.531Z,21.70
2018-08-30T15:11:19.312Z,21.70
2018-08-30T15:13:47.556Z,21.80
2018-08-30T15:16:16.085Z,21.80
2018-08-30T15:18:44.648Z,21.80
2018-08-30T15:21:13.142Z,21.70
2018-08-30T15:23:41.624Z,21.70
2018-08-30T15:26:10.098Z,21.60
2018-08-30T15:28:38.536Z,21.70
2018-08-30T15:31:07.020Z,21.60
2018-08-30T15:33:35.600Z,21.70
2018-08-30T15:36:04.055Z,21.70
2018-08-30T15:38:32.610Z,21.60
2018-08-30T15:41:01.027Z,21.80
2018-08-30T15:43:29.468Z,21.80
2018-08-30T15:45:57.962Z,21.90
2018-08-30T15:48:26.587Z,21.70
2018-08-30T15:50:54.973Z,21.80
2018-08-30T15:53:23.649Z,21.80
2018-08-30T15:55:51.993Z,21.50
2018-08-30T15:58:20.520Z,21.00
2018-08-30T16:00:49.012Z,20.70
2018-08-30T16:03:17.488Z,20.60
2018-08-30T16:05:46.240Z,20.60
2018-08-30T16:08:14.805Z,20.70
2018-08-30T16:10:43.316Z,20.50
2018-08-30T16:13:11.900Z,20.30
2018-08-30T16:15:40.385Z,20.10
2018-08-30T16:18:08.850Z,19.90
2018-08-30T16:20:37.420Z,19.80
2018-08-30T16:23:31.453Z,19.80
2018-08-30T16:25:59.928Z,19.90
2018-08-30T16:28:29.318Z,19.90
2018-08-30T16:30:57.916Z,19.80
2018-08-30T16:33:26.441Z,19.80
2018-08-30T16:35:54.932Z,19.70
2018-08-30T16:38:23.561Z,19.70
2018-08-30T16:40:52.044Z,19.70
2018-08-30T16:43:20.578Z,19.60
2018-08-30T16:45:49.389Z,19.50
2018-08-30T16:48:17.898Z,19.30
2018-08-30T16:50:46.349Z,19.30
2018-08-30T16:53:14.918Z,19.30
2018-08-30T16:55:43.413Z,19.40
2018-08-30T16:58:11.870Z,19.30
2018-08-30T17:00:40.347Z,19.30
2018-08-30T17:03:09.071Z,19.20
2018-08-30T17:05:37.537Z,19.20
2018-08-30T17:08:06.264Z,19.20
2018-08-30T17:10:34.756Z,19.10
2018-08-30T17:13:03.324Z,18.90
2018-08-30T17:15:31.772Z,18.90
2018-08-30T17:18:00.277Z,18.80
2018-08-30T17:20:38.062Z,18.80
2018-08-30T17:23:06.563Z,18.80
2018-08-30T17:25:35.040Z,18.70
2018-08-30T17:28:03.517Z,18.70
2018-08-30T17:30:31.984Z,18.70
2018-08-30T17:33:00.468Z,18.70
2018-08-30T17:35:28.892Z,18.70
2018-08-30T17:37:57.331Z,18.70
2018-08-30T17:40:25.836Z,18.70
2018-08-30T17:42:54.267Z,18.80
2018-08-30T17:45:22.905Z,18.80
2018-08-30T17:47:51.285Z,18.80
2018-08-30T17:50:19.799Z,18.70
2018-08-30T17:52:48.424Z,18.70
2018-08-30T17:55:17.017Z,18.60
2018-08-30T17:57:45.416Z,18.60
2018-08-30T18:00:14.440Z,18.60
2018-08-30T18:02:44.081Z,18.50
2018-08-30T18:05:12.930Z,18.50
2018-08-30T18:07:41.395Z,18.50
2018-08-30T18:10:10.032Z,18.60
2018-08-30T18:12:39.028Z,18.50
2018-08-30T18:15:09.235Z,18.50
2018-08-30T18:17:37.636Z,18.50
2018-08-30T18:20:06.465Z,18.40
2018-08-30T18:22:34.929Z,18.30
2018-08-30T18:25:03.388Z,18.30
2018-08-30T18:27:31.812Z,18.30
2018-08-30T18:30:00.248Z,18.30
2018-08-30T18:32:28.664Z,18.20
2018-08-30T18:34:57.275Z,18.20
2018-08-30T18:37:25.697Z,18.20
2018-08-30T18:39:54.168Z,18.10
2018-08-30T18:42:22.711Z,18.10
2018-08-30T18:44:51.217Z,18.10
2018-08-30T18:47:19.695Z,18.00
2018-08-30T18:49:48.204Z,18.00
2018-08-30T18:52:16.677Z,18.10
2018-08-30T18:54:45.146Z,18.00
2018-08-30T18:57:13.580Z,18.00
2018-08-30T18:59:42.032Z,18.00
2018-08-30T19:02:10.481Z,17.80
2018-08-30T19:04:38.932Z,17.80
2018-08-30T19:07:07.416Z,17.80
2018-08-30T19:09:35.877Z,17.70
2018-08-30T19:12:04.329Z,17.70
2018-08-30T19:14:32.814Z,17.60
2018-08-30T19:17:06.680Z,17.50
2018-08-30T19:19:36.002Z,17.60
2018-08-30T19:22:04.713Z,17.60
2018-08-30T19:24:38.697Z,17.60
2018-08-30T19:27:07.197Z,17.60
2018-08-30T19:29:41.072Z,17.60
2018-08-30T19:32:09.533Z,17.50
2018-08-30T19:34:37.996Z,17.50
2018-08-30T19:37:06.502Z,17.50
2018-08-30T19:39:34.952Z,17.40
2018-08-30T19:42:03.421Z,17.40
2018-08-30T19:44:31.877Z,17.40
2018-08-30T19:47:00.350Z,17.30
2018-08-30T19:49:28.836Z,17.30
2018-08-30T19:51:57.301Z,17.30
2018-08-30T19:54:25.748Z,17.40
2018-08-30T19:56:54.216Z,17.40
2018-08-30T19:59:22.676Z,17.30
2018-08-30T20:01:51.140Z,17.30
2018-08-30T20:04:19.588Z,17.20
2018-08-30T20:06:48.119Z,17.20
2018-08-30T20:09:16.662Z,17.20
2018-08-30T20:11:45.065Z,17.20
2018-08-30T20:14:13.510Z,17.20
2018-08-30T20:16:42.052Z,17.20
2018-08-30T20:19:10.493Z,17.10
2018-08-30T20:21:38.964Z,17.10
2018-08-30T20:24:07.458Z,17.00
2018-08-30T20:26:35.933Z,16.90
2018-08-30T20:29:04.420Z,16.90
2018-08-30T20:31:32.918Z,16.80
2018-08-30T20:34:01.405Z,16.80
2018-08-30T20:36:29.849Z,16.80
2018-08-30T20:38:58.301Z,16.70
2018-08-30T20:41:26.781Z,16.70
2018-08-30T20:43:55.241Z,16.60
2018-08-30T20:46:23.767Z,16.60
2018-08-30T20:48:52.160Z,16.60
2018-08-30T20:51:20.644Z,16.60
2018-08-30T20:53:49.070Z,16.60
2018-08-30T20:56:17.634Z,16.60
2018-08-30T20:58:46.089Z,16.60
2018-08-30T21:01:14.580Z,16.60
2018-08-30T21:03:43.055Z,16.50
2018-08-30T21:06:11.572Z,16.50
2018-08-30T21:08:39.996Z,16.50
2018-08-30T21:11:08.445Z,16.50
2018-08-30T21:13:36.925Z,16.50
2018-08-30T21:16:05.399Z,16.50
2018-08-30T21:18:33.884Z,16.50
2018-08-30T21:21:02.318Z,16.50
2018-08-30T21:23:30.713Z,16.50
2018-08-30T21:25:59.127Z,16.50
2018-08-30T21:28:27.599Z,16.50
2018-08-30T21:30:56.105Z,16.50
2018-08-30T21:33:24.702Z,16.60
2018-08-30T21:35:53.376Z,16.60
2018-08-30T21:38:21.793Z,16.60
2018-08-30T21:40:50.252Z,16.70
2018-08-30T21:43:19.068Z,16.70
2018-08-30T21:45:47.905Z,16.70
2018-08-30T21:48:16.610Z,16.70
2018-08-30T21:50:45.116Z,16.70
2018-08-30T21:53:13.537Z,16.60
2018-08-30T21:55:41.948Z,16.70
2018-08-30T21:58:10.604Z,16.70
2018-08-30T22:00:39.672Z,16.70
2018-08-30T22:03:08.613Z,16.70
2018-08-30T22:05:37.556Z,16.70
2018-08-30T22:08:06.069Z,16.70
2018-08-30T22:10:34.484Z,16.60
2018-08-30T22:13:02.934Z,16.60
2018-08-30T22:15:31.490Z,16.60
2018-08-30T22:18:00.217Z,16.60
2018-08-30T22:20:28.717Z,16.60
2018-08-30T22:22:57.142Z,16.60
2018-08-30T22:25:25.553Z,16.60
2018-08-30T22:27:53.985Z,16.60
2018-08-30T22:30:22.400Z,16.60
2018-08-30T22:32:50.833Z,16.60
2018-08-30T22:35:19.275Z,16.50
2018-08-30T22:37:47.668Z,16.60
2018-08-30T22:40:16.137Z,16.50
2018-08-30T22:42:44.517Z,16.60
2018-08-30T22:45:12.944Z,16.60
2018-08-30T22:47:41.344Z,16.60
2018-08-30T22:50:09.775Z,16.50
2018-08-30T22:52:38.165Z,16.60
2018-08-30T22:55:06.626Z,16.60
2018-08-30T22:57:35.073Z,16.60
2018-08-30T23:00:03.768Z,16.50
2018-08-30T23:02:32.159Z,16.50
2018-08-30T23:05:00.584Z,16.50
2018-08-30T23:07:28.997Z,16.50
2018-08-30T23:09:57.467Z,16.60
2018-08-30T23:12:25.870Z,16.50
2018-08-30T23:14:54.329Z,16.40
2018-08-30T23:17:22.744Z,16.50
2018-08-30T23:19:51.257Z,16.50
2018-08-30T23:22:19.688Z,16.50
2018-08-30T23:24:48.124Z,16.60
2018-08-30T23:27:16.537Z,16.60
2018-08-30T23:29:44.997Z,16.70
2018-08-30T23:32:13.388Z,16.60
2018-08-30T23:34:41.800Z,16.70
2018-08-30T23:37:10.216Z,16.60
2018-08-30T23:39:38.613Z,16.50
2018-08-30T23:42:07.057Z,16.60
2018-08-30T23:44:35.445Z,16.60
2018-08-30T23:47:03.949Z,16.50
2018-08-30T23:49:32.352Z,16.60
2018-08-30T23:52:00.773Z,16.70
2018-08-30T23:54:29.241Z,16.60
2018-08-30T23:56:57.733Z,16.50
2018-08-30T23:59:37.477Z,16.60
